createdAt,value
2023-04-18T00:00:37.005Z,239.08
2023-04-18T00:01:37.032Z,241.90
2023-04-18T00:02:37.113Z,242.29
2023-04-18T00:03:37.220Z,241.18
2023-04-18T00:04:37.120Z,239.45
2023-04-18T00:05:37.087Z,237.80
2023-04-18T00:06:37.156Z,236.46
2023-04-18T00:07:37.230Z,236.01
2023-04-18T00:08:37.191Z,235.47
2023-04-18T00:09:37.379Z,234.63
2023-04-18T00:10:37.176Z,227.88
2023-04-18T00:11:37.202Z,225.96
2023-04-18T00:12:37.198Z,225.22
2023-04-18T00:13:37.235Z,225.03
2023-04-18T00:14:37.300Z,223.94
2023-04-18T00:15:37.271Z,225.89
2023-04-18T00:16:37.345Z,223.54
2023-04-18T00:17:37.296Z,221.56
2023-04-18T00:18:37.306Z,219.79
2023-04-18T00:19:37.253Z,220.41
2023-04-18T00:20:37.686Z,221.81
2023-04-18T00:21:37.283Z,222.52
2023-04-18T00:22:37.311Z,222.05
2023-04-18T00:23:37.494Z,220.65
2023-04-18T00:24:37.388Z,220.90
2023-04-18T00:25:37.461Z,222.07
2023-04-18T00:26:37.425Z,223.32
2023-04-18T00:27:37.431Z,224.80
2023-04-18T00:28:37.490Z,224.08
2023-04-18T00:29:37.553Z,225.12
2023-04-18T00:30:37.722Z,225.48
2023-04-18T00:31:37.570Z,223.67
2023-04-18T00:32:37.671Z,220.18
2023-04-18T00:33:37.618Z,220.63
2023-04-18T00:34:37.663Z,221.56
2023-04-18T00:35:37.654Z,220.70
2023-04-18T00:36:37.689Z,218.48
2023-04-18T00:37:37.685Z,212.11
2023-04-18T00:38:37.665Z,202.24
2023-04-18T00:39:37.725Z,198.77
2023-04-18T00:40:37.764Z,196.65
2023-04-18T00:41:37.757Z,192.56
2023-04-18T00:42:37.797Z,189.85
2023-04-18T00:43:38.624Z,183.78
2023-04-18T00:44:37.835Z,184.38
2023-04-18T00:45:37.939Z,181.00
2023-04-18T00:46:37.990Z,179.46
2023-04-18T00:47:37.905Z,178.85
2023-04-18T00:48:37.896Z,179.77
2023-04-18T00:49:37.908Z,176.22
2023-04-18T00:50:37.935Z,172.33
2023-04-18T00:51:38.041Z,171.47
2023-04-18T00:52:37.977Z,171.70
2023-04-18T00:53:37.977Z,169.75
2023-04-18T00:54:38.055Z,170.99
2023-04-18T00:55:37.986Z,172.72
2023-04-18T00:56:37.997Z,174.40
2023-04-18T00:57:38.024Z,174.33
2023-04-18T00:58:38.128Z,180.18
2023-04-18T00:59:38.005Z,185.96
2023-04-18T01:00:37.992Z,193.54
2023-04-18T01:01:38.112Z,204.23
2023-04-18T01:02:38.162Z,219.83
2023-04-18T01:03:38.224Z,233.97
2023-04-18T01:04:38.206Z,250.81
2023-04-18T01:05:38.211Z,254.05
2023-04-18T01:06:38.133Z,256.48
2023-04-18T01:07:38.247Z,257.28
2023-04-18T01:08:38.221Z,255.08
2023-04-18T01:09:38.593Z,248.47
2023-04-18T01:10:38.296Z,239.37
2023-04-18T01:11:38.275Z,235.89
2023-04-18T01:12:38.293Z,236.54
2023-04-18T01:13:38.361Z,238.28
2023-04-18T01:14:38.369Z,229.94
2023-04-18T01:15:38.418Z,212.60
2023-04-18T01:16:38.354Z,201.32
2023-04-18T01:17:38.460Z,200.13
2023-04-18T01:18:38.446Z,202.06
2023-04-18T01:19:38.571Z,197.90
2023-04-18T01:20:39.119Z,194.22
2023-04-18T01:21:38.601Z,198.01
2023-04-18T01:22:38.573Z,205.92
2023-04-18T01:23:38.549Z,215.96
2023-04-18T01:24:38.622Z,229.02
2023-04-18T01:25:38.525Z,236.54
2023-04-18T01:26:38.552Z,241.35
2023-04-18T01:27:38.623Z,244.01
2023-04-18T01:28:38.686Z,238.26
2023-04-18T01:29:39.668Z,223.89
2023-04-18T01:30:38.817Z,212.70
2023-04-18T01:31:38.958Z,205.10
2023-04-18T01:32:38.856Z,200.96
2023-04-18T01:33:39.650Z,201.05
2023-04-18T01:34:38.853Z,202.43
2023-04-18T01:35:38.813Z,192.69
2023-04-18T01:36:38.859Z,190.27
2023-04-18T01:37:38.845Z,180.70
2023-04-18T01:38:38.888Z,178.00
2023-04-18T01:39:38.844Z,172.63
2023-04-18T01:40:38.922Z,169.14
2023-04-18T01:41:38.924Z,167.94
2023-04-18T01:42:38.936Z,169.67
2023-04-18T01:43:38.924Z,173.85
2023-04-18T01:44:38.982Z,179.34
2023-04-18T01:45:39.166Z,179.53
2023-04-18T01:46:39.085Z,179.12
2023-04-18T01:47:39.067Z,175.43
2023-04-18T01:48:39.102Z,175.18
2023-04-18T01:49:39.171Z,173.92
2023-04-18T01:50:39.273Z,172.04
2023-04-18T01:51:39.272Z,171.06
2023-04-18T01:52:39.282Z,169.52
2023-04-18T01:53:39.305Z,169.63
2023-04-18T01:54:39.323Z,168.42
2023-04-18T01:55:39.440Z,169.85
2023-04-18T01:56:39.425Z,168.05
2023-04-18T01:57:39.498Z,165.49
2023-04-18T01:58:39.443Z,164.53
2023-04-18T01:59:39.462Z,163.53
2023-04-18T02:00:39.506Z,163.47
2023-04-18T02:01:39.481Z,162.84
2023-04-18T02:02:39.616Z,160.33
2023-04-18T02:03:39.619Z,159.66
2023-04-18T02:04:39.532Z,159.07
2023-04-18T02:05:39.533Z,154.95
2023-04-18T02:06:39.560Z,157.79
2023-04-18T02:07:39.584Z,154.83
2023-04-18T02:08:39.624Z,152.81
2023-04-18T02:09:39.654Z,153.81
2023-04-18T02:10:39.679Z,152.82
2023-04-18T02:11:39.685Z,147.50
2023-04-18T02:12:39.717Z,150.59
2023-04-18T02:13:39.791Z,149.17
2023-04-18T02:14:47.626Z,148.01
2023-04-18T02:15:39.823Z,144.16
2023-04-18T02:16:39.885Z,144.89
2023-04-18T02:17:39.813Z,141.84
2023-04-18T02:18:39.767Z,141.99
2023-04-18T02:19:39.764Z,144.14
2023-04-18T02:20:39.771Z,147.01
2023-04-18T02:21:39.724Z,148.81
2023-04-18T02:22:39.775Z,151.54
2023-04-18T02:23:39.752Z,155.89
2023-04-18T02:24:40.153Z,159.65
2023-04-18T02:25:39.743Z,162.55
2023-04-18T02:26:39.712Z,159.68
2023-04-18T02:27:39.731Z,156.89
2023-04-18T02:28:39.718Z,156.42
2023-04-18T02:29:40.229Z,155.16
2023-04-18T02:30:39.787Z,153.46
2023-04-18T02:31:39.877Z,151.28
2023-04-18T02:32:39.866Z,153.24
2023-04-18T02:33:39.963Z,152.73
2023-04-18T02:34:39.918Z,153.46
2023-04-18T02:35:40.714Z,153.19
2023-04-18T02:36:41.687Z,156.07
2023-04-18T02:37:39.924Z,154.42
2023-04-18T02:38:40.113Z,150.98
2023-04-18T02:39:40.154Z,144.61
2023-04-18T02:40:40.078Z,145.30
2023-04-18T02:41:40.196Z,147.58
2023-04-18T02:42:40.107Z,145.42
2023-04-18T02:43:40.125Z,141.89
2023-04-18T02:44:40.103Z,146.42
2023-04-18T02:45:40.223Z,147.61
2023-04-18T02:46:40.250Z,150.24
2023-04-18T02:47:47.395Z,156.35
2023-04-18T02:48:41.104Z,156.40
2023-04-18T02:49:40.288Z,156.83
2023-04-18T02:50:40.104Z,157.81
2023-04-18T02:51:40.186Z,158.58
2023-04-18T02:52:40.096Z,161.91
2023-04-18T02:53:40.065Z,163.37
2023-04-18T02:54:40.094Z,166.87
2023-04-18T02:55:40.154Z,161.51
2023-04-18T02:56:40.199Z,160.11
2023-04-18T02:57:40.073Z,159.31
2023-04-18T02:58:40.057Z,158.00
2023-04-18T02:59:40.118Z,161.64
2023-04-18T03:00:40.047Z,163.35
2023-04-18T03:01:40.099Z,162.47
2023-04-18T03:02:40.123Z,162.09
2023-04-18T03:03:40.000Z,162.82
2023-04-18T03:04:40.006Z,163.85
2023-04-18T03:05:40.065Z,166.70
2023-04-18T03:06:40.092Z,169.25
2023-04-18T03:07:40.185Z,173.40
2023-04-18T03:08:40.130Z,177.81
2023-04-18T03:09:40.218Z,185.26
2023-04-18T03:10:40.272Z,193.27
2023-04-18T03:11:40.338Z,196.57
2023-04-18T03:12:40.307Z,195.67
2023-04-18T03:13:40.382Z,197.25
2023-04-18T03:14:40.459Z,198.65
2023-04-18T03:15:40.439Z,199.89
2023-04-18T03:16:40.544Z,199.31
2023-04-18T03:17:40.473Z,199.21
2023-04-18T03:18:40.470Z,200.45
2023-04-18T03:19:40.511Z,202.65
2023-04-18T03:20:41.131Z,204.88
2023-04-18T03:21:40.605Z,208.41
2023-04-18T03:22:40.619Z,212.93
2023-04-18T03:23:40.610Z,215.67
2023-04-18T03:24:40.732Z,218.47
2023-04-18T03:25:40.779Z,222.04
2023-04-18T03:26:40.736Z,224.42
2023-04-18T03:27:40.763Z,225.96
2023-04-18T03:28:40.834Z,228.81
2023-04-18T03:29:40.938Z,234.38
2023-04-18T03:30:40.914Z,236.25
2023-04-18T03:31:41.046Z,237.36
2023-04-18T03:32:40.974Z,235.98
2023-04-18T03:33:40.960Z,228.90
2023-04-18T03:34:41.099Z,225.57
2023-04-18T03:35:41.046Z,220.17
2023-04-18T03:36:41.121Z,212.57
2023-04-18T03:37:41.130Z,208.39
2023-04-18T03:38:41.056Z,204.36
2023-04-18T03:39:41.088Z,201.71
2023-04-18T03:40:41.091Z,199.52
2023-04-18T03:41:41.124Z,197.75
2023-04-18T03:42:41.119Z,195.94
2023-04-18T03:43:41.086Z,192.06
2023-04-18T03:44:41.145Z,191.03
2023-04-18T03:45:41.147Z,188.58
2023-04-18T03:46:41.255Z,188.56
2023-04-18T03:47:41.204Z,186.99
2023-04-18T03:48:41.180Z,184.25
2023-04-18T03:49:41.206Z,184.63
2023-04-18T03:50:41.332Z,185.19
2023-04-18T03:51:41.346Z,186.19
2023-04-18T03:52:41.354Z,186.67
2023-04-18T03:53:41.380Z,188.47
2023-04-18T03:54:41.447Z,186.70
2023-04-18T03:55:41.426Z,186.10
2023-04-18T03:56:41.495Z,190.50
2023-04-18T03:57:41.564Z,189.30
2023-04-18T03:58:41.578Z,188.72
2023-04-18T03:59:41.557Z,185.77
2023-04-18T04:00:41.560Z,188.30
2023-04-18T04:01:41.559Z,192.23
2023-04-18T04:02:41.681Z,196.53
2023-04-18T04:03:41.809Z,200.23
2023-04-18T04:04:41.771Z,204.74
2023-04-18T04:05:41.671Z,212.24
2023-04-18T04:06:41.628Z,210.15
2023-04-18T04:07:41.592Z,209.56
2023-04-18T04:08:41.600Z,207.12
2023-04-18T04:09:41.764Z,204.81
2023-04-18T04:10:41.708Z,199.65
2023-04-18T04:11:41.773Z,198.03
2023-04-18T04:12:41.738Z,196.11
2023-04-18T04:13:41.762Z,198.17
2023-04-18T04:14:42.186Z,200.65
2023-04-18T04:15:42.670Z,199.06
2023-04-18T04:16:41.863Z,193.33
2023-04-18T04:17:41.905Z,190.41
2023-04-18T04:18:41.905Z,192.84
2023-04-18T04:19:41.921Z,194.26
2023-04-18T04:20:41.890Z,191.47
2023-04-18T04:21:41.957Z,189.37
2023-04-18T04:22:41.930Z,189.14
2023-04-18T04:23:41.941Z,189.50
2023-04-18T04:24:41.910Z,187.12
2023-04-18T04:25:41.936Z,184.63
2023-04-18T04:26:41.964Z,183.14
2023-04-18T04:27:42.033Z,179.63
2023-04-18T04:28:41.992Z,174.63
2023-04-18T04:29:42.099Z,172.00
2023-04-18T04:30:42.072Z,170.49
2023-04-18T04:31:42.243Z,171.96
2023-04-18T04:32:42.232Z,172.77
2023-04-18T04:33:42.072Z,176.24
2023-04-18T04:34:42.140Z,179.35
2023-04-18T04:35:42.161Z,182.79
2023-04-18T04:36:42.113Z,188.01
2023-04-18T04:37:42.146Z,192.26
2023-04-18T04:38:42.155Z,199.51
2023-04-18T04:39:42.183Z,202.18
2023-04-18T04:40:42.204Z,208.33
2023-04-18T04:41:42.231Z,210.55
2023-04-18T04:42:42.301Z,223.33
2023-04-18T04:43:42.258Z,243.82
2023-04-18T04:44:42.270Z,248.20
2023-04-18T04:45:42.297Z,250.00
2023-04-18T04:46:42.256Z,253.65
2023-04-18T04:47:42.292Z,251.51
2023-04-18T04:48:42.315Z,262.68
2023-04-18T04:49:42.373Z,255.82
2023-04-18T04:50:42.482Z,256.71
2023-04-18T04:51:42.454Z,263.45
2023-04-18T04:52:42.556Z,266.76
2023-04-18T04:53:42.555Z,272.28
2023-04-18T04:54:42.568Z,266.50
2023-04-18T04:55:42.608Z,252.30
2023-04-18T04:56:42.683Z,234.60
2023-04-18T04:57:42.765Z,222.40
2023-04-18T04:58:42.738Z,216.13
2023-04-18T04:59:42.756Z,218.01
2023-04-18T05:00:42.742Z,216.75
2023-04-18T05:01:42.773Z,229.29
2023-04-18T05:02:42.859Z,236.32
2023-04-18T05:03:42.948Z,239.53
2023-04-18T05:04:42.904Z,245.71
2023-04-18T05:05:42.783Z,242.81
2023-04-18T05:06:42.791Z,239.85
2023-04-18T05:07:42.828Z,245.90
2023-04-18T05:08:42.880Z,247.90
2023-04-18T05:09:42.884Z,248.86
2023-04-18T05:10:42.920Z,244.57
2023-04-18T05:11:42.985Z,240.71
2023-04-18T05:12:43.009Z,238.80
2023-04-18T05:13:43.028Z,247.85
2023-04-18T05:14:43.092Z,250.05
2023-04-18T05:15:43.111Z,248.50
2023-04-18T05:16:43.115Z,249.85
2023-04-18T05:17:43.204Z,249.61
2023-04-18T05:18:43.178Z,246.81
2023-04-18T05:19:43.153Z,247.93
2023-04-18T05:20:43.325Z,243.01
2023-04-18T05:21:43.271Z,239.36
2023-04-18T05:22:43.337Z,238.70
2023-04-18T05:23:43.731Z,236.57
2023-04-18T05:24:43.459Z,236.71
2023-04-18T05:25:45.210Z,234.50
2023-04-18T05:26:43.676Z,230.15
2023-04-18T05:27:43.486Z,232.41
2023-04-18T05:28:43.807Z,238.44
2023-04-18T05:29:43.776Z,244.05
2023-04-18T05:30:43.585Z,241.97
2023-04-18T05:31:43.590Z,245.92
2023-04-18T05:32:43.791Z,252.11
2023-04-18T05:33:44.744Z,240.75
2023-04-18T05:34:43.838Z,236.01
2023-04-18T05:35:43.815Z,238.36
2023-04-18T05:36:43.806Z,250.12
2023-04-18T05:37:43.741Z,246.87
2023-04-18T05:38:43.848Z,235.60
2023-04-18T05:39:44.255Z,229.50
2023-04-18T05:40:43.836Z,221.93
2023-04-18T05:41:44.074Z,215.97
2023-04-18T05:42:44.072Z,212.10
2023-04-18T05:43:54.192Z,209.42
2023-04-18T05:44:45.734Z,209.24
2023-04-18T05:45:43.966Z,209.80
2023-04-18T05:46:44.045Z,212.03
2023-04-18T05:47:44.021Z,215.59
2023-04-18T05:48:43.953Z,220.24
2023-04-18T05:49:44.252Z,224.28
2023-04-18T05:50:44.217Z,222.65
2023-04-18T05:51:43.966Z,217.39
2023-04-18T05:52:44.014Z,213.61
2023-04-18T05:53:44.252Z,210.92
2023-04-18T05:54:43.947Z,208.73
2023-04-18T05:55:43.958Z,208.15
2023-04-18T05:56:44.021Z,209.03
2023-04-18T05:57:43.892Z,211.46
2023-04-18T05:58:43.872Z,215.47
2023-04-18T05:59:43.997Z,219.78
2023-04-18T06:00:43.864Z,223.30
2023-04-18T06:01:43.877Z,224.76
2023-04-18T06:02:43.947Z,225.36
2023-04-18T06:03:44.106Z,227.84
2023-04-18T06:04:44.163Z,228.30
2023-04-18T06:05:43.984Z,228.45
2023-04-18T06:06:43.977Z,231.97
2023-04-18T06:07:43.951Z,230.59
2023-04-18T06:08:43.985Z,229.18
2023-04-18T06:09:44.042Z,227.19
2023-04-18T06:10:44.205Z,225.18
2023-04-18T06:11:44.069Z,224.21
2023-04-18T06:12:44.121Z,220.33
2023-04-18T06:13:44.204Z,218.43
2023-04-18T06:14:44.352Z,219.81
2023-04-18T06:15:44.363Z,220.46
2023-04-18T06:16:44.222Z,220.47
2023-04-18T06:17:44.277Z,221.63
2023-04-18T06:18:44.735Z,221.16
2023-04-18T06:19:44.270Z,221.84
2023-04-18T06:20:44.283Z,223.62
2023-04-18T06:21:44.494Z,226.32
2023-04-18T06:22:44.522Z,226.15
2023-04-18T06:23:44.492Z,223.86
2023-04-18T06:24:44.428Z,222.25
2023-04-18T06:25:44.473Z,221.97
2023-04-18T06:26:44.679Z,222.38
2023-04-18T06:27:44.518Z,224.31
2023-04-18T06:28:44.769Z,225.60
2023-04-18T06:29:44.771Z,225.90
2023-04-18T06:30:44.835Z,225.84
2023-04-18T06:31:44.691Z,226.45
2023-04-18T06:32:44.804Z,223.82
2023-04-18T06:33:44.706Z,223.61
2023-04-18T06:34:44.798Z,224.60
2023-04-18T06:35:44.816Z,225.87
2023-04-18T06:36:44.764Z,225.98
2023-04-18T06:37:44.814Z,225.91
2023-04-18T06:38:45.590Z,225.58
2023-04-18T06:39:44.866Z,227.16
2023-04-18T06:40:45.234Z,228.27
2023-04-18T06:41:44.905Z,223.53
2023-04-18T06:42:44.914Z,223.16
2023-04-18T06:43:55.802Z,221.84
2023-04-18T06:44:45.980Z,219.70
2023-04-18T06:45:45.309Z,217.49
2023-04-18T06:46:44.996Z,217.18
2023-04-18T06:47:44.987Z,217.59
2023-04-18T06:48:48.958Z,214.79
2023-04-18T06:49:44.948Z,214.88
2023-04-18T06:50:45.349Z,216.10
2023-04-18T06:51:45.055Z,216.73
2023-04-18T06:52:44.934Z,214.96
2023-04-18T06:53:44.851Z,211.13
2023-04-18T06:54:44.955Z,210.18
2023-04-18T06:55:44.951Z,208.41
2023-04-18T06:56:44.848Z,206.57
2023-04-18T06:57:44.886Z,207.97
2023-04-18T06:58:45.006Z,207.02
2023-04-18T06:59:44.935Z,207.00
2023-04-18T07:00:45.279Z,206.27
2023-04-18T07:01:44.911Z,206.81
2023-04-18T07:02:45.136Z,210.77
2023-04-18T07:03:45.311Z,210.56
2023-04-18T07:04:45.252Z,210.25
2023-04-18T07:05:45.236Z,210.67
2023-04-18T07:06:45.111Z,208.20
2023-04-18T07:07:45.261Z,207.26
2023-04-18T07:08:45.983Z,203.63
2023-04-18T07:09:45.700Z,202.73
2023-04-18T07:10:45.252Z,201.99
2023-04-18T07:11:45.176Z,203.08
2023-04-18T07:12:45.203Z,204.01
2023-04-18T07:13:45.457Z,203.00
2023-04-18T07:14:47.109Z,202.73
2023-04-18T07:15:45.419Z,204.09
2023-04-18T07:16:45.532Z,204.15
2023-04-18T07:17:45.276Z,206.14
2023-04-18T07:18:45.413Z,204.96
2023-04-18T07:19:45.296Z,204.14
2023-04-18T07:20:45.529Z,201.83
2023-04-18T07:21:45.363Z,201.56
2023-04-18T07:22:45.474Z,201.25
2023-04-18T07:23:45.471Z,205.16
2023-04-18T07:24:45.541Z,203.44
2023-04-18T07:25:45.607Z,193.81
2023-04-18T07:26:45.965Z,192.66
2023-04-18T07:27:45.564Z,193.78
2023-04-18T07:28:45.620Z,194.42
2023-04-18T07:29:45.680Z,197.29
2023-04-18T07:30:45.874Z,201.41
2023-04-18T07:31:45.645Z,199.66
2023-04-18T07:32:45.749Z,202.63
2023-04-18T07:33:45.765Z,201.50
2023-04-18T07:34:46.285Z,204.09
2023-04-18T07:35:45.884Z,203.31
2023-04-18T07:36:45.902Z,201.36
2023-04-18T07:37:45.846Z,204.96
2023-04-18T07:38:45.836Z,200.50
2023-04-18T07:39:46.378Z,184.93
2023-04-18T07:40:46.029Z,176.63
2023-04-18T07:41:46.196Z,179.64
2023-04-18T07:42:46.067Z,181.01
2023-04-18T07:43:46.725Z,198.05
2023-04-18T07:44:46.004Z,194.80
2023-04-18T07:45:46.077Z,194.24
2023-04-18T07:46:46.170Z,187.67
2023-04-18T07:47:46.068Z,184.73
2023-04-18T07:48:47.107Z,182.75
2023-04-18T07:49:46.268Z,180.72
2023-04-18T07:50:46.297Z,182.65
2023-04-18T07:51:46.179Z,184.03
2023-04-18T07:52:46.220Z,194.86
2023-04-18T07:53:46.216Z,206.58
2023-04-18T07:54:46.542Z,208.38
2023-04-18T07:55:46.816Z,205.92
2023-04-18T07:56:46.332Z,195.91
2023-04-18T07:57:47.523Z,188.05
2023-04-18T07:58:46.575Z,187.48
2023-04-18T07:59:46.851Z,184.40
2023-04-18T08:00:46.838Z,180.55
2023-04-18T08:01:46.691Z,181.34
2023-04-18T08:02:46.764Z,189.83
2023-04-18T08:03:46.738Z,192.71
2023-04-18T08:04:46.749Z,192.27
2023-04-18T08:05:46.674Z,200.83
2023-04-18T08:06:46.630Z,203.17
2023-04-18T08:07:46.701Z,199.96
2023-04-18T08:08:46.719Z,193.58
2023-04-18T08:09:46.765Z,183.95
2023-04-18T08:10:46.777Z,176.31
2023-04-18T08:11:47.745Z,165.98
2023-04-18T08:12:46.857Z,160.16
2023-04-18T08:13:46.892Z,158.70
2023-04-18T08:14:46.982Z,146.26
2023-04-18T08:15:46.899Z,162.41
2023-04-18T08:16:46.951Z,221.48
2023-04-18T08:17:46.923Z,236.01
2023-04-18T08:18:46.987Z,236.86
2023-04-18T08:19:47.123Z,228.19
2023-04-18T08:20:47.052Z,220.30
2023-04-18T08:21:47.150Z,203.89
2023-04-18T08:23:04.710Z,189.73
2023-04-18T08:23:48.090Z,175.13
2023-04-18T08:25:03.206Z,173.97
2023-04-18T08:25:48.560Z,165.46
2023-04-18T08:26:47.087Z,138.48
2023-04-18T08:27:47.056Z,121.59
2023-04-18T08:28:47.293Z,138.92
2023-04-18T08:29:47.049Z,150.66
2023-04-18T08:30:48.286Z,141.37
2023-04-18T08:31:47.153Z,122.57
2023-04-18T08:32:47.273Z,113.36
2023-04-18T08:33:47.021Z,97.31
2023-04-18T08:34:47.239Z,94.07
2023-04-18T08:35:47.107Z,101.34
2023-04-18T08:36:47.152Z,115.60
2023-04-18T08:37:46.994Z,123.32
2023-04-18T08:38:47.083Z,140.93
2023-04-18T08:39:47.072Z,135.45
2023-04-18T08:40:47.530Z,112.80
2023-04-18T08:41:47.311Z,91.96
2023-04-18T08:42:47.229Z,85.63
2023-04-18T08:43:47.252Z,68.27
2023-04-18T08:44:47.630Z,62.76
2023-04-18T08:45:47.612Z,66.16
2023-04-18T08:46:48.118Z,88.02
2023-04-18T08:47:50.245Z,78.00
2023-04-18T08:48:47.403Z,64.27
2023-04-18T08:49:47.459Z,49.91
2023-04-18T08:50:47.525Z,32.62
2023-04-18T08:51:47.751Z,15.27
2023-04-18T08:52:47.413Z,16.20
2023-04-18T08:53:47.451Z,29.40
2023-04-18T08:54:47.811Z,33.86
2023-04-18T08:55:47.385Z,34.94
2023-04-18T08:56:47.770Z,34.12
2023-04-18T08:57:47.369Z,49.38
2023-04-18T08:58:47.318Z,47.15
2023-04-18T08:59:50.373Z,52.74
2023-04-18T09:00:47.323Z,52.89
2023-04-18T09:01:47.276Z,53.77
2023-04-18T09:02:47.535Z,57.49
2023-04-18T09:03:47.288Z,62.89
2023-04-18T09:04:47.383Z,57.22
2023-04-18T09:05:47.356Z,42.92
2023-04-18T09:06:47.329Z,39.31
2023-04-18T09:07:47.263Z,38.32
2023-04-18T09:08:47.253Z,17.06
2023-04-18T09:09:47.294Z,14.36
2023-04-18T09:10:47.204Z,16.28
2023-04-18T09:11:47.347Z,28.24
2023-04-18T09:12:47.218Z,33.57
2023-04-18T09:13:47.205Z,29.87
2023-04-18T09:14:47.181Z,18.51
2023-04-18T09:15:47.192Z,25.49
2023-04-18T09:16:47.293Z,26.21
2023-04-18T09:17:47.247Z,22.78
2023-04-18T09:18:47.179Z,15.78
2023-04-18T09:19:47.177Z,20.93
2023-04-18T09:20:47.291Z,37.79
2023-04-18T09:21:47.258Z,45.06
2023-04-18T09:22:47.132Z,40.48
2023-04-18T09:23:47.769Z,44.13
2023-04-18T09:24:47.787Z,39.78
2023-04-18T09:25:47.112Z,27.71
2023-04-18T09:26:47.181Z,29.68
2023-04-18T09:27:47.112Z,39.86
2023-04-18T09:28:47.208Z,46.57
2023-04-18T09:29:47.328Z,36.31
2023-04-18T09:30:47.201Z,86.63
2023-04-18T09:31:47.078Z,153.90
2023-04-18T09:32:47.150Z,183.08
2023-04-18T09:33:47.088Z,166.88
2023-04-18T09:34:47.082Z,158.82
2023-04-18T09:35:47.536Z,180.18
2023-04-18T09:36:48.247Z,160.60
2023-04-18T09:37:47.233Z,137.95
2023-04-18T09:38:47.238Z,103.06
2023-04-18T09:39:47.271Z,63.09
2023-04-18T09:40:47.350Z,43.94
2023-04-18T09:41:47.256Z,34.15
2023-04-18T09:42:47.236Z,43.36
2023-04-18T09:43:47.152Z,52.21
2023-04-18T09:44:47.332Z,60.58
2023-04-18T09:45:47.121Z,41.83
2023-04-18T09:46:47.775Z,42.25
2023-04-18T09:47:47.894Z,62.01
2023-04-18T09:48:47.280Z,58.76
2023-04-18T09:49:47.107Z,35.75
2023-04-18T09:50:47.354Z,40.87
2023-04-18T09:51:47.352Z,42.87
2023-04-18T09:52:47.080Z,39.70
2023-04-18T09:53:47.038Z,34.51
2023-04-18T09:54:48.236Z,31.79
2023-04-18T09:55:47.064Z,53.88
2023-04-18T09:56:47.226Z,44.79
2023-04-18T09:57:47.175Z,54.38
2023-04-18T09:58:47.177Z,54.90
2023-04-18T09:59:47.201Z,70.35
2023-04-18T10:00:47.366Z,63.93
2023-04-18T10:01:47.868Z,68.32
2023-04-18T10:02:47.954Z,70.90
2023-04-18T10:03:47.444Z,89.69
2023-04-18T10:04:47.430Z,83.59
2023-04-18T10:05:47.558Z,95.00
2023-04-18T10:06:47.439Z,64.30
2023-04-18T10:07:47.592Z,51.47
2023-04-18T10:08:47.654Z,58.95
2023-04-18T10:09:47.636Z,46.44
2023-04-18T10:10:47.697Z,37.17
2023-04-18T10:11:50.271Z,32.80
2023-04-18T10:12:48.151Z,40.62
2023-04-18T10:13:48.023Z,33.30
2023-04-18T10:14:48.887Z,28.87
2023-04-18T10:15:48.063Z,27.70
2023-04-18T10:16:50.574Z,34.59
2023-04-18T10:18:02.743Z,44.45
2023-04-18T10:18:49.071Z,38.60
2023-04-18T10:19:48.068Z,34.02
2023-04-18T10:20:47.984Z,39.28
2023-04-18T10:21:48.000Z,31.25
2023-04-18T10:22:48.075Z,26.73
2023-04-18T10:23:47.997Z,27.21
2023-04-18T10:24:48.044Z,33.62
2023-04-18T10:25:48.853Z,35.56
2023-04-18T10:26:47.985Z,31.30
2023-04-18T10:27:49.030Z,29.63
2023-04-18T10:28:48.804Z,32.55
2023-04-18T10:29:48.154Z,26.40
2023-04-18T10:30:48.813Z,27.29
2023-04-18T10:31:48.364Z,92.61
2023-04-18T10:32:48.250Z,126.20
2023-04-18T10:34:48.364Z,69.98
2023-04-18T10:35:48.334Z,52.36
2023-04-18T10:36:48.401Z,53.05
2023-04-18T10:37:48.398Z,63.92
2023-04-18T10:38:48.459Z,61.86
2023-04-18T10:39:48.450Z,63.18
2023-04-18T10:40:48.575Z,34.87
2023-04-18T10:41:49.465Z,25.62
2023-04-18T10:42:48.651Z,32.29
2023-04-18T10:43:48.675Z,41.85
2023-04-18T10:44:48.639Z,55.83
2023-04-18T10:45:48.661Z,49.72
2023-04-18T10:46:48.861Z,47.06
2023-04-18T10:47:48.791Z,37.95
2023-04-18T10:48:48.707Z,29.97
2023-04-18T10:49:48.695Z,32.80
2023-04-18T10:50:48.698Z,38.79
2023-04-18T10:51:48.766Z,34.35
2023-04-18T10:52:48.788Z,36.84
2023-04-18T10:53:49.322Z,54.15
2023-04-18T10:54:48.932Z,53.64
2023-04-18T10:55:48.900Z,37.30
2023-04-18T10:56:48.926Z,41.88
2023-04-18T10:57:48.966Z,47.38
2023-04-18T10:58:49.935Z,38.07
2023-04-18T10:59:48.970Z,46.26
2023-04-18T11:00:49.075Z,42.08
2023-04-18T11:01:49.136Z,29.38
2023-04-18T11:02:49.306Z,31.18
2023-04-18T11:03:49.102Z,46.47
2023-04-18T11:04:49.038Z,40.91
2023-04-18T11:05:49.061Z,32.24
2023-04-18T11:06:49.526Z,44.06
2023-04-18T11:07:49.108Z,31.33
2023-04-18T11:08:49.164Z,28.07
2023-04-18T11:09:49.171Z,31.00
2023-04-18T11:10:49.177Z,31.45
2023-04-18T11:11:49.154Z,51.94
2023-04-18T11:12:49.168Z,126.69
2023-04-18T11:13:49.304Z,102.53
2023-04-18T11:14:49.410Z,75.07
2023-04-18T11:15:49.220Z,59.80
2023-04-18T11:16:49.444Z,57.72
2023-04-18T11:17:49.431Z,63.08
2023-04-18T11:18:49.396Z,64.38
2023-04-18T11:19:49.396Z,55.70
2023-04-18T11:20:49.408Z,56.73
2023-04-18T11:21:49.387Z,45.19
2023-04-18T11:22:49.344Z,47.62
2023-04-18T11:23:49.462Z,59.01
2023-04-18T11:24:49.387Z,55.35
2023-04-18T11:25:50.441Z,48.51
2023-04-18T11:26:49.847Z,64.81
2023-04-18T11:27:49.581Z,65.12
2023-04-18T11:28:49.570Z,47.64
2023-04-18T11:29:50.367Z,34.71
2023-04-18T11:30:50.416Z,25.11
2023-04-18T11:31:49.789Z,24.55
2023-04-18T11:32:49.716Z,25.71
2023-04-18T11:33:49.779Z,28.28
2023-04-18T11:34:49.782Z,33.06
2023-04-18T11:35:49.811Z,43.48
2023-04-18T11:36:49.941Z,48.66
2023-04-18T11:37:49.620Z,49.57
2023-04-18T11:38:49.807Z,58.22
2023-04-18T11:39:50.545Z,43.49
2023-04-18T11:40:49.596Z,35.91
2023-04-18T11:41:49.645Z,39.69
2023-04-18T11:42:49.585Z,48.28
2023-04-18T11:43:49.581Z,35.44
2023-04-18T11:44:49.552Z,25.99
2023-04-18T11:45:49.595Z,23.38
2023-04-18T11:46:49.600Z,29.58
2023-04-18T11:47:49.588Z,30.68
2023-04-18T11:48:49.530Z,37.39
2023-04-18T11:49:49.510Z,38.79
2023-04-18T11:50:49.536Z,31.73
2023-04-18T11:51:49.547Z,27.33
2023-04-18T11:52:49.550Z,39.94
2023-04-18T11:53:49.517Z,70.79
2023-04-18T11:54:49.523Z,66.06
2023-04-18T11:55:49.515Z,70.72
2023-04-18T11:56:49.563Z,43.84
2023-04-18T11:57:49.519Z,23.94
2023-04-18T11:58:49.511Z,32.66
2023-04-18T11:59:49.486Z,42.69
2023-04-18T12:00:49.563Z,54.72
2023-04-18T12:01:50.065Z,51.58
2023-04-18T12:02:49.570Z,59.57
2023-04-18T12:03:49.574Z,47.99
2023-04-18T12:04:49.850Z,58.88
2023-04-18T12:05:49.572Z,56.41
2023-04-18T12:06:49.455Z,38.51
2023-04-18T12:07:49.402Z,56.08
2023-04-18T12:08:49.406Z,36.90
2023-04-18T12:09:49.457Z,58.07
2023-04-18T12:10:49.528Z,75.32
2023-04-18T12:11:49.817Z,74.03
2023-04-18T12:12:49.501Z,66.51
2023-04-18T12:13:49.520Z,64.57
2023-04-18T12:14:49.446Z,62.40
2023-04-18T12:15:49.555Z,57.93
2023-04-18T12:16:49.557Z,59.41
2023-04-18T12:17:49.557Z,124.86
2023-04-18T12:18:49.659Z,104.03
2023-04-18T12:19:49.862Z,81.49
2023-04-18T12:20:49.590Z,83.16
2023-04-18T12:21:49.627Z,91.25
2023-04-18T12:22:49.808Z,90.51
2023-04-18T12:23:49.604Z,31.83
2023-04-18T12:24:49.560Z,16.94
2023-04-18T12:25:49.700Z,25.73
2023-04-18T12:26:49.871Z,23.73
2023-04-18T12:27:50.412Z,32.98
2023-04-18T12:28:50.373Z,29.61
2023-04-18T12:29:49.605Z,25.38
2023-04-18T12:30:49.533Z,39.28
2023-04-18T12:31:50.486Z,32.78
2023-04-18T12:32:50.528Z,6.29
2023-04-18T12:33:49.594Z,0.00
2023-04-18T12:34:49.678Z,5.50
2023-04-18T12:35:49.791Z,42.01
2023-04-18T12:36:50.422Z,43.36